Time;durP1;ratioP1;P1;durP2;ratioP2;P2;SDS_P1;SDS_P2;PMS_P1;PMS_P2;Temp;Humidity;BMP_temperature;BMP_pressure;BME280_temperature;BME280_humidity;BME280_pressure;Samples;Min_cycle;Max_cycle;Signal;HPM_P1;HPM_P2
2023/10/31 00:01:07;;;;;;;;;;;;;;;14.22;78.37;96256.28;5109105;27;19938;-77
2023/10/31 00:03:57;;;;;;;;;;;;;;;14.17;78.64;96251.97;5104966;27;20093;-77
2023/10/31 00:06:45;;;;;;;;;;;;;;;14.14;79.00;96256.22;5101669;27;20386;-77
2023/10/31 00:09:33;;;;;;;;;;;;;;;13.81;81.04;96264.44;5095857;28;20010;-76
2023/10/31 00:12:21;;;;;;;;;;;;;;;14.05;79.80;96263.13;5108558;28;19930;-77
2023/10/31 00:15:11;;;;;;;;;;;;;;;14.09;79.54;96275.69;5088847;28;19924;-77
2023/10/31 00:17:59;;;;;;;;;;;;;;;14.10;79.59;96281.91;5108072;28;19923;-76
2023/10/31 00:20:50;;;;;;;;;;;;;;;14.09;79.21;96281.13;5095882;28;19930;-77
2023/10/31 00:23:43;;;;;;;;;;;;;;;14.04;79.19;96283.41;5081988;28;20498;-77
2023/10/31 00:26:31;;;;;;;;;;;;;;;14.01;79.52;96282.22;5097634;28;19930;-77
2023/10/31 00:29:19;;;;;;;;;;;;;;;13.88;80.04;96291.81;5082488;28;20013;-77
2023/10/31 00:32:08;;;;;;;;;;;;;;;13.92;79.95;96292.66;5107905;28;19955;-77
2023/10/31 00:34:56;;;;;;;;;;;;;;;13.89;79.38;96293.38;5091140;28;19932;-76
2023/10/31 00:37:45;;;;;;;;;;;;;;;13.84;79.38;96285.53;5087995;28;19927;-77
2023/10/31 00:40:33;;;;;;;;;;;;;;;13.81;79.71;96286.28;5109369;28;20044;-76
2023/10/31 00:43:21;;;;;;;;;;;;;;;13.80;79.60;96285.50;5090368;28;19980;-77
2023/10/31 00:46:10;;;;;;;;;;;;;;;13.77;79.66;96286.22;5096397;28;19971;-76
2023/10/31 00:48:58;;;;;;;;;;;;;;;13.78;79.81;96295.97;5086263;28;19947;-77
2023/10/31 00:51:46;;;;;;;;;;;;;;;13.79;79.46;96294.03;5093152;28;20311;-77
2023/10/31 00:54:37;;;;;;;;;;;;;;;13.76;79.97;96306.50;5096330;28;19931;-77
2023/10/31 00:57:25;;;;;;;;;;;;;;;13.70;80.24;96312.66;5091019;28;19932;-77
2023/10/31 01:00:14;;;;;;;;;;;;;;;13.69;80.27;96305.59;5092880;28;20476;-76
2023/10/31 01:03:02;;;;;;;;;;;;;;;13.65;80.03;96304.78;5081516;28;19974;-77
2023/10/31 01:05:50;;;;;;;;;;;;;;;13.67;80.05;96299.75;5106631;27;20466;-77
2023/10/31 01:08:38;;;;;;;;;;;;;;;13.63;80.16;96308.69;5110741;27;20063;-77
2023/10/31 01:11:27;;;;;;;;;;;;;;;13.61;80.18;96305.53;5111109;27;20094;-77
2023/10/31 01:14:15;;;;;;;;;;;;;;;13.57;79.93;96298.44;5112384;27;19965;-76
2023/10/31 01:17:04;;;;;;;;;;;;;;;13.53;79.87;96303.88;5103914;27;19923;-77
2023/10/31 01:19:52;;;;;;;;;;;;;;;13.49;80.81;96307.69;5111997;27;20354;-76
2023/10/31 01:22:40;;;;;;;;;;;;;;;13.57;80.17;96304.69;5129267;27;20393;-76
2023/10/31 01:25:29;;;;;;;;;;;;;;;13.56;80.06;96316.75;5127148;27;19924;-76
2023/10/31 01:28:18;;;;;;;;;;;;;;;13.57;80.03;96323.00;5107215;27;19923;-76
2023/10/31 01:31:08;;;;;;;;;;;;;;;13.49;80.06;96321.34;5103300;27;19977;-77
2023/10/31 01:33:56;;;;;;;;;;;;;;;13.48;79.71;96317.03;5118513;27;20076;-76
2023/10/31 01:36:44;;;;;;;;;;;;;;;13.39;80.67;96314.56;5103176;27;20026;-77
2023/10/31 01:39:32;;;;;;;;;;;;;;;13.47;80.04;96308.06;5097732;28;19930;-77
2023/10/31 01:42:22;;;;;;;;;;;;;;;13.41;79.76;96306.00;5114827;27;20414;-76
2023/10/31 01:45:12;;;;;;;;;;;;;;;13.41;79.50;96304.06;5111606;27;20014;-76
2023/10/31 01:48:00;;;;;;;;;;;;;;;13.38;79.79;96302.09;5109823;27;20322;-76
2023/10/31 01:50:48;;;;;;;;;;;;;;;13.39;79.45;96302.88;5132915;27;19924;-76
2023/10/31 01:53:36;;;;;;;;;;;;;;;13.33;78.99;96305.94;5107798;27;19924;-76
2023/10/31 01:56:24;;;;;;;;;;;;;;;13.33;79.34;96310.59;5111634;27;20396;-76
2023/10/31 01:59:12;;;;;;;;;;;;;;;13.32;78.77;96303.56;5102751;27;19931;-76
2023/10/31 02:02:01;;;;;;;;;;;;;;;13.35;79.00;96311.78;5122287;27;20295;-76
2023/10/31 02:04:51;;;;;;;;;;;;;;;13.33;78.84;96332.41;5105603;27;20367;-76
2023/10/31 02:07:39;;;;;;;;;;;;;;;13.29;78.58;96331.56;5103125;27;19924;-76
2023/10/31 02:10:29;;;;;;;;;;;;;;;13.30;78.43;96325.75;5104394;27;19923;-77
2023/10/31 02:13:18;;;;;;;;;;;;;;;13.23;78.14;96342.00;5127999;27;19969;-76
2023/10/31 02:16:07;;;;;;;;;;;;;;;13.13;78.70;96339.09;5106131;28;20014;-77
2023/10/31 02:18:56;;;;;;;;;;;;;;;13.19;77.83;96345.81;5103150;27;20587;-76
2023/10/31 02:21:46;;;;;;;;;;;;;;;13.20;77.87;96350.09;5112716;27;19939;-77
2023/10/31 02:24:34;;;;;;;;;;;;;;;13.18;77.34;96355.13;5120315;27;20429;-76
2023/10/31 02:27:22;;;;;;;;;;;;;;;13.16;77.32;96354.72;5123527;27;20351;-77
2023/10/31 02:30:11;;;;;;;;;;;;;;;13.18;77.06;96355.13;5124064;27;19924;-77
2023/10/31 02:32:59;;;;;;;;;;;;;;;13.15;76.76;96367.53;5111033;27;19931;-76
2023/10/31 02:35:47;;;;;;;;;;;;;;;13.05;76.93;96365.47;5102870;28;19936;-74
2023/10/31 02:38:36;;;;;;;;;;;;;;;13.00;77.07;96368.50;5121465;27;19927;-75
2023/10/31 02:41:24;;;;;;;;;;;;;;;12.97;77.41;96378.16;5102840;27;19923;-75
2023/10/31 02:44:12;;;;;;;;;;;;;;;12.97;77.23;96382.84;5111304;27;20325;-75
2023/10/31 02:47:00;;;;;;;;;;;;;;;12.90;76.49;96385.44;5106512;28;20306;-75
2023/10/31 02:49:49;;;;;;;;;;;;;;;12.86;76.38;96390.84;5125498;27;19930;-75
2023/10/31 02:52:37;;;;;;;;;;;;;;;12.75;75.67;96401.53;5119204;27;19931;-75
2023/10/31 02:55:26;;;;;;;;;;;;;;;12.80;75.90;96403.97;5111509;27;19931;-75
2023/10/31 02:58:17;;;;;;;;;;;;;;;12.78;76.95;96406.28;5120419;27;19985;-74
2023/10/31 03:01:05;;;;;;;;;;;;;;;12.77;77.00;96414.81;5110338;28;19943;-75
2023/10/31 03:04:42;;;;;;;;;;;;;;;12.78;76.75;96421.81;5127945;27;19932;-75
2023/10/31 03:07:31;;;;;;;;;;;;;;;12.69;76.54;96424.00;5115284;27;19924;-75
2023/10/31 03:10:20;;;;;;;;;;;;;;;12.75;76.04;96438.91;5106571;28;19923;-75
2023/10/31 03:13:09;;;;;;;;;;;;;;;12.71;74.95;96433.38;5114958;28;20013;-75
2023/10/31 03:15:57;;;;;;;;;;;;;;;12.65;74.48;96428.59;5131463;28;20030;-75
2023/10/31 03:18:45;;;;;;;;;;;;;;;12.56;74.64;96432.31;5103363;28;19950;-75
2023/10/31 03:21:34;;;;;;;;;;;;;;;12.54;74.29;96423.72;5114206;28;19924;-75
2023/10/31 03:24:21;;;;;;;;;;;;;;;12.38;74.09;96431.19;5120493;27;19923;-75
2023/10/31 03:27:10;;;;;;;;;;;;;;;12.31;74.93;96431.84;5106910;27;19924;-74
2023/10/31 03:29:59;;;;;;;;;;;;;;;12.33;75.42;96426.03;5104021;27;19924;-75
2023/10/31 03:32:47;;;;;;;;;;;;;;;12.32;75.73;96427.19;5129666;27;19929;-75
2023/10/31 03:35:35;;;;;;;;;;;;;;;12.39;75.68;96437.44;5129920;27;19973;-75
2023/10/31 03:38:23;;;;;;;;;;;;;;;12.47;76.02;96448.13;5116867;27;19924;-75
2023/10/31 03:41:13;;;;;;;;;;;;;;;12.47;75.81;96448.13;5102255;27;19942;-75
2023/10/31 03:44:03;;;;;;;;;;;;;;;12.51;75.58;96448.94;5100598;28;20307;-75
2023/10/31 03:46:52;;;;;;;;;;;;;;;12.52;74.56;96447.81;5116430;27;20641;-75
2023/10/31 03:49:40;;;;;;;;;;;;;;;12.52;73.75;96447.03;5132447;27;19923;-75
2023/10/31 03:52:29;;;;;;;;;;;;;;;12.53;73.34;96441.22;5129759;27;19924;-75
2023/10/31 03:55:18;;;;;;;;;;;;;;;12.49;72.38;96442.31;5132510;27;20370;-75
2023/10/31 03:58:06;;;;;;;;;;;;;;;12.40;71.87;96442.50;5112289;27;19927;-75
2023/10/31 04:00:54;;;;;;;;;;;;;;;12.35;71.80;96442.78;5108961;27;20032;-75
2023/10/31 04:03:43;;;;;;;;;;;;;;;12.26;71.34;96450.41;5104986;28;19930;-74
2023/10/31 04:06:32;;;;;;;;;;;;;;;12.14;70.66;96466.84;5108740;27;19988;-75
2023/10/31 04:09:21;;;;;;;;;;;;;;;12.15;70.88;96473.91;5113016;27;19973;-75
2023/10/31 04:12:09;;;;;;;;;;;;;;;12.09;71.80;96467.13;5101275;28;20291;-75
2023/10/31 04:14:57;;;;;;;;;;;;;;;12.13;72.11;96465.28;5125442;27;19927;-75
2023/10/31 04:17:45;;;;;;;;;;;;;;;12.05;71.50;96472.53;5113996;27;20008;-75
2023/10/31 04:20:34;;;;;;;;;;;;;;;12.12;71.88;96471.88;5106862;27;19965;-75
2023/10/31 04:23:22;;;;;;;;;;;;;;;12.15;71.66;96482.06;5104081;27;20398;-75
2023/10/31 04:26:10;;;;;;;;;;;;;;;12.13;72.03;96473.44;5103756;28;19924;-75
2023/10/31 04:28:58;;;;;;;;;;;;;;;12.14;72.05;96470.38;5124965;27;19974;-75
2023/10/31 04:31:47;;;;;;;;;;;;;;;12.14;72.01;96464.13;5126897;27;20360;-75
2023/10/31 04:34:35;;;;;;;;;;;;;;;12.12;72.17;96466.44;5121647;27;20013;-75
2023/10/31 04:37:26;;;;;;;;;;;;;;;12.10;72.11;96471.44;5130077;27;19923;-75
2023/10/31 04:40:14;;;;;;;;;;;;;;;12.04;72.14;96479.09;5106270;27;19927;-77
2023/10/31 04:43:03;;;;;;;;;;;;;;;12.03;71.67;96478.28;5106525;27;20318;-77
2023/10/31 04:45:51;;;;;;;;;;;;;;;12.02;71.73;96479.44;5114085;27;19923;-75
2023/10/31 04:48:42;;;;;;;;;;;;;;;11.93;71.15;96483.50;5115766;27;19924;-77
2023/10/31 04:51:33;;;;;;;;;;;;;;;11.82;71.58;96491.41;5106774;27;19970;-77
2023/10/31 04:54:22;;;;;;;;;;;;;;;11.88;71.77;96492.75;5132437;27;20449;-75
2023/10/31 04:57:11;;;;;;;;;;;;;;;11.80;71.61;96496.41;5101978;28;19930;-76
2023/10/31 04:59:59;;;;;;;;;;;;;;;11.77;72.04;96502.53;5112923;27;19932;-76
2023/10/31 05:02:47;;;;;;;;;;;;;;;11.73;71.89;96493.53;5121749;27;20013;-76
2023/10/31 05:05:36;;;;;;;;;;;;;;;11.73;72.20;96498.97;5107402;27;19924;-77
2023/10/31 05:08:24;;;;;;;;;;;;;;;11.84;71.92;96508.19;5076127;28;20306;-77
2023/10/31 05:11:13;;;;;;;;;;;;;;;11.86;71.64;96507.84;5096627;27;20378;-77
2023/10/31 05:14:01;;;;;;;;;;;;;;;11.90;71.01;96511.44;5085135;27;19924;-76
2023/10/31 05:16:50;;;;;;;;;;;;;;;11.93;70.79;96516.97;5127650;27;19923;-76
2023/10/31 05:19:38;;;;;;;;;;;;;;;12.05;70.22;96530.47;5063547;28;19946;-77
2023/10/31 05:22:26;;;;;;;;;;;;;;;12.09;69.52;96521.56;5092769;28;19930;-77
2023/10/31 05:25:15;;;;;;;;;;;;;;;12.13;69.52;96530.63;5097951;28;19924;-76
2023/10/31 05:28:04;;;;;;;;;;;;;;;12.12;69.45;96527.09;5120187;27;19924;-76
2023/10/31 05:30:52;;;;;;;;;;;;;;;12.11;69.31;96541.09;5088338;27;20010;-76
2023/10/31 05:33:40;;;;;;;;;;;;;;;12.22;69.17;96537.44;5099293;28;20069;-77
2023/10/31 05:36:28;;;;;;;;;;;;;;;12.29;68.19;96534.88;5082618;27;19932;-77
2023/10/31 05:39:16;;;;;;;;;;;;;;;12.19;67.57;96534.63;5086864;27;20387;-75
2023/10/31 05:42:05;;;;;;;;;;;;;;;12.15;68.26;96539.25;5087233;28;19923;-75
2023/10/31 05:44:54;;;;;;;;;;;;;;;12.20;67.98;96534.31;5087773;28;20009;-76
2023/10/31 05:47:43;;;;;;;;;;;;;;;12.07;68.31;96530.88;5080483;27;19924;-74
2023/10/31 05:50:31;;;;;;;;;;;;;;;12.06;67.04;96534.75;5086473;28;19938;-75
2023/10/31 05:53:22;;;;;;;;;;;;;;;12.03;67.13;96540.13;5088543;28;20019;-75
2023/10/31 05:56:11;;;;;;;;;;;;;;;12.13;67.20;96544.22;5088930;28;19923;-75
2023/10/31 05:59:00;;;;;;;;;;;;;;;12.07;66.81;96544.50;5118649;27;19923;-77
2023/10/31 06:01:50;;;;;;;;;;;;;;;12.11;66.77;96551.97;5085688;28;20031;-78
2023/10/31 06:04:38;;;;;;;;;;;;;;;12.07;66.75;96560.03;5103915;27;19935;-78
2023/10/31 06:07:27;;;;;;;;;;;;;;;11.92;66.96;96567.09;5106756;27;20376;-84
2023/10/31 06:10:15;;;;;;;;;;;;;;;11.87;67.48;96564.63;5103977;27;19931;-77
2023/10/31 06:13:03;;;;;;;;;;;;;;;11.81;67.02;96566.00;5108770;27;19924;-74
2023/10/31 06:15:51;;;;;;;;;;;;;;;11.84;67.06;96570.00;5121238;27;19924;-75
2023/10/31 06:18:41;;;;;;;;;;;;;;;11.78;67.05;96570.22;5107598;27;19930;-74
2023/10/31 06:21:29;;;;;;;;;;;;;;;11.89;67.10;96567.00;5103577;27;19931;-76
2023/10/31 06:24:17;;;;;;;;;;;;;;;11.87;66.99;96578.22;5108663;28;19923;-74
2023/10/31 06:27:08;;;;;;;;;;;;;;;11.78;66.42;96588.50;5105021;27;20070;-74
2023/10/31 06:29:56;;;;;;;;;;;;;;;11.75;66.61;96592.69;5096254;28;19923;-74
2023/10/31 06:32:59;;;;;;;;;;;;;;;11.76;67.16;96597.00;5106864;27;19935;-77
2023/10/31 06:35:48;;;;;;;;;;;;;;;11.74;67.35;96609.38;5103823;27;19924;-74
2023/10/31 06:38:39;;;;;;;;;;;;;;;11.74;67.17;96609.38;5135115;27;20405;-74
2023/10/31 06:41:27;;;;;;;;;;;;;;;11.70;67.05;96619.38;5113691;27;20325;-74
2023/10/31 06:44:16;;;;;;;;;;;;;;;11.74;67.33;96625.69;5115705;27;19938;-74
2023/10/31 06:47:04;;;;;;;;;;;;;;;11.79;67.46;96636.31;5127312;27;19931;-77
2023/10/31 06:49:53;;;;;;;;;;;;;;;11.89;66.81;96645.94;5121380;27;19924;-75
2023/10/31 06:52:42;;;;;;;;;;;;;;;11.94;66.75;96651.13;5108753;27;19924;-75
2023/10/31 06:55:31;;;;;;;;;;;;;;;11.92;66.60;96651.44;5120182;27;19987;-75
2023/10/31 06:58:19;;;;;;;;;;;;;;;11.95;66.62;96650.75;5118350;27;19934;-75
2023/10/31 07:01:07;;;;;;;;;;;;;;;11.97;66.13;96655.84;5120770;27;20275;-75
2023/10/31 07:03:55;;;;;;;;;;;;;;;11.99;66.69;96659.81;5118680;27;20334;-74
2023/10/31 07:06:43;;;;;;;;;;;;;;;11.90;66.40;96664.63;5104381;28;19932;-78
2023/10/31 07:09:35;;;;;;;;;;;;;;;11.91;66.59;96679.03;5095714;28;22383;-80
2023/10/31 07:12:23;;;;;;;;;;;;;;;11.89;66.84;96682.09;5088691;28;20567;-77
2023/10/31 07:15:11;;;;;;;;;;;;;;;11.92;66.10;96686.81;5092324;28;20053;-75
2023/10/31 07:18:01;;;;;;;;;;;;;;;11.96;66.21;96693.16;5106023;28;20302;-74
2023/10/31 07:20:50;;;;;;;;;;;;;;;12.05;66.22;96701.19;5097283;28;19946;-75
2023/10/31 07:23:40;;;;;;;;;;;;;;;12.12;65.96;96701.34;5076719;28;19928;-74
2023/10/31 07:26:31;;;;;;;;;;;;;;;12.14;65.63;96711.88;5096219;28;20528;-76
2023/10/31 07:29:22;;;;;;;;;;;;;;;12.16;65.64;96704.97;5088613;28;19928;-74
2023/10/31 07:32:14;;;;;;;;;;;;;;;12.16;65.07;96706.88;5082042;28;20294;-77
2023/10/31 07:35:03;;;;;;;;;;;;;;;12.15;65.30;96718.94;5093394;28;19931;-74
2023/10/31 07:37:51;;;;;;;;;;;;;;;12.16;64.71;96707.69;5105278;28;19925;-75
2023/10/31 07:40:40;;;;;;;;;;;;;;;12.13;64.88;96715.75;5091590;28;19932;-74
2023/10/31 07:43:29;;;;;;;;;;;;;;;12.09;64.87;96701.25;5095490;28;19931;-74
2023/10/31 07:46:18;;;;;;;;;;;;;;;12.03;65.19;96706.94;5091518;28;19949;-74
2023/10/31 07:49:07;;;;;;;;;;;;;;;12.06;65.40;96714.44;5090192;28;19967;-74
2023/10/31 07:51:55;;;;;;;;;;;;;;;12.02;65.39;96712.75;5094154;28;19923;-75
2023/10/31 07:54:44;;;;;;;;;;;;;;;12.05;65.22;96715.56;5099410;28;19924;-75
2023/10/31 07:57:32;;;;;;;;;;;;;;;12.11;65.58;96726.22;5088089;28;19931;-75
2023/10/31 08:00:22;;;;;;;;;;;;;;;12.06;64.74;96719.88;5086979;28;20003;-75
2023/10/31 08:03:10;;;;;;;;;;;;;;;12.03;64.42;96734.16;5088003;28;19928;-74
2023/10/31 08:06:00;;;;;;;;;;;;;;;12.03;64.69;96736.88;5094239;28;19924;-75
2023/10/31 08:08:48;;;;;;;;;;;;;;;12.05;64.76;96736.56;5102391;28;20049;-75
2023/10/31 08:11:41;;;;;;;;;;;;;;;12.04;65.17;96740.44;5090717;28;19928;-75
2023/10/31 08:14:29;;;;;;;;;;;;;;;12.03;64.76;96742.34;5082252;28;19932;-75
2023/10/31 08:17:23;;;;;;;;;;;;;;;11.87;64.33;96752.41;5083481;28;19942;-75
2023/10/31 08:20:13;;;;;;;;;;;;;;;11.83;64.98;96745.31;5087655;28;19931;-75
2023/10/31 08:23:01;;;;;;;;;;;;;;;11.84;64.87;96750.38;5091912;28;19936;-75
2023/10/31 08:25:50;;;;;;;;;;;;;;;11.88;64.91;96748.56;5093488;28;19928;-74
2023/10/31 08:28:39;;;;;;;;;;;;;;;11.94;64.98;96749.88;5108164;28;20018;-75
2023/10/31 08:31:27;;;;;;;;;;;;;;;11.95;64.60;96761.56;5091313;28;19928;-74
2023/10/31 08:34:16;;;;;;;;;;;;;;;12.04;64.79;96760.28;5097575;28;20398;-74
2023/10/31 08:37:04;;;;;;;;;;;;;;;12.07;64.44;96764.22;5091441;28;20378;-76
2023/10/31 08:39:53;;;;;;;;;;;;;;;12.07;64.09;96769.66;5080350;28;20030;-75
2023/10/31 08:42:42;;;;;;;;;;;;;;;12.04;63.86;96764.94;5090599;28;20032;-78
2023/10/31 08:45:31;;;;;;;;;;;;;;;11.97;64.66;96765.50;5099320;28;20603;-74
2023/10/31 08:48:19;;;;;;;;;;;;;;;11.97;64.95;96764.72;5099691;28;19931;-74
2023/10/31 08:51:09;;;;;;;;;;;;;;;11.99;64.88;96759.75;5087340;28;19945;-75
2023/10/31 08:53:57;;;;;;;;;;;;;;;11.99;64.32;96760.53;5094089;28;20536;-75
2023/10/31 08:56:45;;;;;;;;;;;;;;;11.96;64.27;96763.94;5102483;28;19924;-77
2023/10/31 08:59:34;;;;;;;;;;;;;;;11.93;64.50;96761.91;5098995;27;20295;-75
2023/10/31 09:02:22;;;;;;;;;;;;;;;11.90;64.69;96757.16;5087524;28;19982;-75
2023/10/31 09:05:11;;;;;;;;;;;;;;;11.93;64.41;96756.47;5086952;28;19928;-75
2023/10/31 09:08:00;;;;;;;;;;;;;;;11.96;64.17;96757.69;5085590;27;19930;-75
2023/10/31 09:10:49;;;;;;;;;;;;;;;11.98;64.84;96763.56;5109041;27;20562;-75
2023/10/31 09:13:37;;;;;;;;;;;;;;;12.00;64.47;96759.38;5123701;27;19931;-75
2023/10/31 09:16:26;;;;;;;;;;;;;;;11.91;63.99;96758.75;5131169;27;20072;-75
2023/10/31 09:19:14;;;;;;;;;;;;;;;11.89;64.46;96768.41;5097635;28;20024;-75
2023/10/31 09:22:02;;;;;;;;;;;;;;;11.88;64.87;96764.06;5121397;27;19967;-75
2023/10/31 09:24:52;;;;;;;;;;;;;;;11.81;64.74;96767.38;5122540;27;19923;-76
2023/10/31 09:27:41;;;;;;;;;;;;;;;11.73;65.57;96771.03;5101663;27;20291;-75
2023/10/31 09:30:29;;;;;;;;;;;;;;;11.73;65.76;96771.84;5098588;27;20057;-74
2023/10/31 09:33:20;;;;;;;;;;;;;;;11.75;66.23;96758.66;5107308;27;19930;-74
2023/10/31 09:36:09;;;;;;;;;;;;;;;11.83;66.58;96765.13;5113554;27;19924;-75
2023/10/31 09:38:57;;;;;;;;;;;;;;;11.90;66.46;96770.78;5110589;27;19930;-74
2023/10/31 09:41:47;;;;;;;;;;;;;;;11.93;66.13;96775.53;5097693;28;19924;-74
2023/10/31 09:44:38;;;;;;;;;;;;;;;12.00;66.31;96777.66;5115057;27;19928;-75
2023/10/31 09:47:28;;;;;;;;;;;;;;;12.05;66.46;96780.91;5115358;27;20439;-74
2023/10/31 09:50:16;;;;;;;;;;;;;;;12.07;66.66;96775.91;5104577;28;19924;-75
2023/10/31 09:53:05;;;;;;;;;;;;;;;12.11;66.76;96786.09;5126262;27;20010;-75
2023/10/31 09:55:53;;;;;;;;;;;;;;;12.09;66.90;96786.47;5106897;27;19934;-75
2023/10/31 09:58:44;;;;;;;;;;;;;;;12.04;66.84;96803.81;5104954;27;19930;-75
2023/10/31 10:01:32;;;;;;;;;;;;;;;12.10;66.70;96803.56;5107649;27;20361;-75
2023/10/31 10:04:21;;;;;;;;;;;;;;;12.19;66.75;96804.19;5119687;27;19923;-74
2023/10/31 10:07:14;;;;;;;;;;;;;;;12.23;66.76;96811.31;5106830;27;19932;-75
2023/10/31 10:10:05;;;;;;;;;;;;;;;12.22;66.31;96808.94;5104843;28;19930;-75
2023/10/31 10:12:54;;;;;;;;;;;;;;;12.21;66.44;96812.81;5132402;27;19945;-75
2023/10/31 10:15:49;;;;;;;;;;;;;;;12.14;66.23;96812.59;5140773;27;19934;-75
2023/10/31 10:18:39;;;;;;;;;;;;;;;11.92;66.32;96817.47;5146387;27;19923;-74
2023/10/31 10:21:27;;;;;;;;;;;;;;;11.98;67.21;96832.41;5115374;27;20400;-75
2023/10/31 10:24:15;;;;;;;;;;;;;;;11.92;67.39;96836.53;5113681;27;20011;-75
2023/10/31 10:27:03;;;;;;;;;;;;;;;11.96;67.60;96831.97;5115484;27;19923;-74
2023/10/31 10:29:54;;;;;;;;;;;;;;;11.92;67.35;96828.34;5124710;27;20288;-75
2023/10/31 10:32:43;;;;;;;;;;;;;;;11.91;67.58;96832.22;5126684;27;19930;-74
2023/10/31 10:35:31;;;;;;;;;;;;;;;11.91;68.06;96834.94;5134476;27;19923;-75
2023/10/31 10:38:20;;;;;;;;;;;;;;;12.00;67.61;96842.97;5134176;27;20031;-75
2023/10/31 10:41:08;;;;;;;;;;;;;;;12.04;67.23;96844.66;5120195;27;20399;-75
2023/10/31 10:44:01;;;;;;;;;;;;;;;12.15;67.28;96844.16;5123053;27;19923;-75
2023/10/31 10:46:50;;;;;;;;;;;;;;;12.20;67.50;96847.44;5125026;27;19924;-75
2023/10/31 10:49:41;;;;;;;;;;;;;;;12.27;67.12;96850.34;5124083;27;19989;-75
2023/10/31 10:52:29;;;;;;;;;;;;;;;12.30;66.44;96857.00;5125151;27;19930;-75
2023/10/31 10:55:19;;;;;;;;;;;;;;;12.33;66.23;96856.31;5119826;27;19923;-75
2023/10/31 10:58:09;;;;;;;;;;;;;;;12.28;66.15;96862.81;5123435;27;19931;-76
2023/10/31 11:00:58;;;;;;;;;;;;;;;12.25;65.69;96858.06;5111085;27;20030;-77
2023/10/31 11:03:50;;;;;;;;;;;;;;;12.28;65.99;96853.84;5099847;28;19924;-77
2023/10/31 11:06:39;;;;;;;;;;;;;;;12.35;65.90;96856.75;5109822;28;19923;-82
2023/10/31 11:09:29;;;;;;;;;;;;;;;12.42;65.42;96850.72;5106950;27;19923;-86
2023/10/31 11:12:18;;;;;;;;;;;;;;;12.42;64.52;96851.53;5111440;28;19924;-81
2023/10/31 11:15:06;;;;;;;;;;;;;;;12.38;64.76;96853.34;5108568;28;19923;-76
2023/10/31 11:17:58;;;;;;;;;;;;;;;12.36;64.35;96863.00;5121763;28;19988;-78
2023/10/31 11:20:49;;;;;;;;;;;;;;;12.38;64.40;96866.97;5127681;28;19923;-77
2023/10/31 11:23:39;;;;;;;;;;;;;;;12.39;63.61;96865.81;5104085;28;19924;-75
2023/10/31 11:26:27;;;;;;;;;;;;;;;12.46;64.11;96862.50;5124484;28;19949;-76
2023/10/31 11:29:15;;;;;;;;;;;;;;;12.55;64.23;96865.84;5125375;28;19931;-75
2023/10/31 11:32:03;;;;;;;;;;;;;;;12.61;63.07;96869.09;5125166;28;20012;-77
2023/10/31 11:34:52;;;;;;;;;;;;;;;12.58;62.85;96860.50;5105609;28;19923;-77
2023/10/31 11:37:43;;;;;;;;;;;;;;;12.60;63.51;96857.41;5124210;27;19923;-77
2023/10/31 11:40:32;;;;;;;;;;;;;;;12.65;62.99;96854.44;5126471;27;19924;-77
2023/10/31 11:43:21;;;;;;;;;;;;;;;12.61;62.62;96863.66;5110536;27;20656;-77
2023/10/31 11:46:18;;;;;;;;;;;;;;;12.51;62.48;96870.41;5131188;27;20013;-80
2023/10/31 11:49:07;;;;;;;;;;;;;;;12.43;62.95;96869.44;5139581;27;19923;-76
2023/10/31 11:51:57;;;;;;;;;;;;;;;12.42;62.86;96864.34;5128719;27;20014;-85
2023/10/31 11:54:46;;;;;;;;;;;;;;;12.46;62.68;96868.72;5131810;27;19923;-82
2023/10/31 11:57:36;;;;;;;;;;;;;;;12.46;62.46;96867.94;5150907;27;20409;-75
2023/10/31 12:00:24;;;;;;;;;;;;;;;12.34;62.28;96866.06;5137904;27;19927;-76
2023/10/31 12:03:14;;;;;;;;;;;;;;;12.33;62.42;96862.56;5133621;27;20450;-76
2023/10/31 12:06:02;;;;;;;;;;;;;;;12.40;62.25;96863.88;5135966;27;20389;-76
2023/10/31 12:08:50;;;;;;;;;;;;;;;12.38;62.29;96877.88;5141122;27;19930;-75
2023/10/31 12:11:45;;;;;;;;;;;;;;;12.34;62.49;96871.53;5138902;27;19937;-76
2023/10/31 12:14:34;;;;;;;;;;;;;;;12.40;63.99;96880.22;5158810;27;19923;-75
2023/10/31 12:17:25;;;;;;;;;;;;;;;12.41;63.06;96882.63;5166264;27;19927;-75
2023/10/31 12:20:13;;;;;;;;;;;;;;;12.42;63.21;96884.19;5147724;27;19922;-75
2023/10/31 12:23:05;;;;;;;;;;;;;;;12.46;63.20;96895.19;5159441;27;19945;-75
2023/10/31 12:25:53;;;;;;;;;;;;;;;12.49;63.62;96889.84;5134535;27;19960;-75
2023/10/31 12:28:42;;;;;;;;;;;;;;;12.53;63.13;96881.75;5137958;27;19931;-75
2023/10/31 12:31:31;;;;;;;;;;;;;;;12.57;63.54;96886.16;5132037;27;20369;-75
2023/10/31 12:34:20;;;;;;;;;;;;;;;12.67;62.73;96886.78;5136619;27;20441;-75
2023/10/31 12:37:08;;;;;;;;;;;;;;;12.64;62.96;96885.56;5147041;27;19934;-75
2023/10/31 12:39:56;;;;;;;;;;;;;;;12.61;62.38;96890.91;5116559;27;19999;-76
2023/10/31 12:42:44;;;;;;;;;;;;;;;12.58;62.22;96885.03;5128512;27;19938;-76
2023/10/31 12:45:33;;;;;;;;;;;;;;;12.53;61.90;96879.03;5134771;27;20035;-78
2023/10/31 12:48:24;;;;;;;;;;;;;;;12.56;61.96;96876.38;5150006;27;19922;-75
2023/10/31 12:51:13;;;;;;;;;;;;;;;12.57;61.94;96869.81;5150730;27;20276;-75
2023/10/31 12:54:02;;;;;;;;;;;;;;;12.58;61.92;96868.69;5135943;27;19931;-76
2023/10/31 12:56:50;;;;;;;;;;;;;;;12.65;62.37;96867.28;5150144;27;19946;-74
2023/10/31 12:59:41;;;;;;;;;;;;;;;12.63;61.24;96869.56;5153372;27;20350;-74
2023/10/31 13:02:29;;;;;;;;;;;;;;;12.63;61.09;96861.41;5146900;27;19931;-74
2023/10/31 13:05:21;;;;;;;;;;;;;;;12.65;61.16;96868.06;5140369;27;20282;-74
2023/10/31 13:08:11;;;;;;;;;;;;;;;12.61;60.78;96863.66;5134197;27;19935;-74
2023/10/31 13:10:59;;;;;;;;;;;;;;;12.67;60.82;96867.72;5137869;27;19923;-74
2023/10/31 13:13:47;;;;;;;;;;;;;;;12.64;60.25;96862.97;5154231;27;19923;-74
2023/10/31 13:16:38;;;;;;;;;;;;;;;12.54;60.05;96870.50;5145523;27;20398;-75
2023/10/31 13:19:26;;;;;;;;;;;;;;;12.50;60.22;96868.81;5126858;27;19927;-74
2023/10/31 13:22:16;;;;;;;;;;;;;;;12.50;60.38;96875.06;5125752;27;20355;-74
2023/10/31 13:25:07;;;;;;;;;;;;;;;12.44;59.57;96881.91;5137773;27;20007;-74
2023/10/31 13:27:56;;;;;;;;;;;;;;;12.44;59.77;96881.91;5155883;27;19922;-74
2023/10/31 13:30:46;;;;;;;;;;;;;;;12.47;60.18;96891.34;5135062;27;19922;-74
2023/10/31 13:33:35;;;;;;;;;;;;;;;12.49;58.82;96894.50;5132996;27;19923;-74
2023/10/31 13:36:23;;;;;;;;;;;;;;;12.54;58.47;96903.19;5133567;27;20086;-74
2023/10/31 13:39:13;;;;;;;;;;;;;;;12.50;57.66;96904.25;5121473;27;19946;-75
2023/10/31 13:42:01;;;;;;;;;;;;;;;12.51;58.04;96914.78;5139071;27;19929;-75
2023/10/31 13:44:52;;;;;;;;;;;;;;;12.53;57.89;96917.19;5130889;27;19972;-74
2023/10/31 13:47:40;;;;;;;;;;;;;;;12.45;57.64;96927.06;5152828;27;19950;-74
2023/10/31 13:50:29;;;;;;;;;;;;;;;12.49;57.43;96925.25;5117072;27;19935;-74
2023/10/31 13:53:17;;;;;;;;;;;;;;;12.53;57.39;96931.59;5110178;27;20407;-76
2023/10/31 13:56:07;;;;;;;;;;;;;;;12.57;57.85;96932.50;5145609;27;19945;-79
2023/10/31 13:58:55;;;;;;;;;;;;;;;12.64;57.46;96917.47;5142592;27;19923;-74
2023/10/31 14:01:45;;;;;;;;;;;;;;;12.67;57.06;96927.66;5131953;27;19923;-75
2023/10/31 14:04:34;;;;;;;;;;;;;;;12.72;57.11;96930.13;5142279;27;20275;-76
2023/10/31 14:07:23;;;;;;;;;;;;;;;12.77;57.39;96932.59;5118370;27;19931;-77
2023/10/31 14:10:11;;;;;;;;;;;;;;;12.82;56.64;96935.06;5119126;27;19923;-75
2023/10/31 14:13:01;;;;;;;;;;;;;;;12.89;57.29;96940.72;5100314;27;19976;-79
2023/10/31 14:15:49;;;;;;;;;;;;;;;12.93;56.46;96951.72;5118199;27;19923;-81
2023/10/31 14:18:37;;;;;;;;;;;;;;;12.95;57.29;96955.69;5115584;27;20064;-79
2023/10/31 14:21:25;;;;;;;;;;;;;;;13.00;57.54;96952.69;5120496;27;20698;-79
2023/10/31 14:24:14;;;;;;;;;;;;;;;12.98;56.86;96965.88;5116518;27;20409;-79
2023/10/31 14:27:02;;;;;;;;;;;;;;;13.01;57.15;96953.50;5122951;27;19923;-81
2023/10/31 14:29:53;;;;;;;;;;;;;;;13.05;57.29;96965.28;5123740;27;20014;-85
2023/10/31 14:32:41;;;;;;;;;;;;;;;13.10;57.26;96968.53;5103775;27;19931;-75
2023/10/31 14:35:29;;;;;;;;;;;;;;;13.19;57.28;96970.31;5113788;27;19924;-75
2023/10/31 14:38:17;;;;;;;;;;;;;;;13.24;56.72;96972.78;5101744;27;19939;-75
2023/10/31 14:41:05;;;;;;;;;;;;;;;13.29;56.62;96980.72;5103994;27;19934;-75